Time;durP1;ratioP1;P1;durP2;ratioP2;P2;SDS_P1;SDS_P2;PMS_P1;PMS_P2;Temp;Humidity;BMP_temperature;BMP_pressure;BME280_temperature;BME280_humidity;BME280_pressure;Samples;Min_cycle;Max_cycle;Signal;HPM_P1;HPM_P2
2021/04/24 00:00:32;;;;;;;4.53;1.52;;;6.50;99.90;;;;;;6156492;23;20013;-93
2021/04/24 00:02:58;;;;;;;2.60;1.63;;;6.50;99.90;;;;;;6180862;23;20530;-91
2021/04/24 00:05:31;;;;;;;9.75;2.38;;;6.60;99.90;;;;;;6156300;23;20075;-93
2021/04/24 00:08:02;;;;;;;6.10;2.00;;;6.60;99.90;;;;;;6191782;23;20041;-91
2021/04/24 00:10:32;;;;;;;6.13;2.15;;;6.60;99.90;;;;;;6182190;23;20100;-94
2021/04/24 00:12:58;;;;;;;12.20;2.13;;;6.60;99.90;;;;;;6181927;23;20021;-93
2021/04/24 00:15:24;;;;;;;2.85;2.17;;;6.50;99.90;;;;;;6182810;23;20024;-91
2021/04/24 00:17:50;;;;;;;3.30;2.00;;;6.50;99.90;;;;;;6181812;23;20021;-94
2021/04/24 00:20:19;;;;;;;8.25;1.90;;;6.50;99.90;;;;;;6182574;23;20067;-93
2021/04/24 00:22:46;;;;;;;9.80;1.63;;;6.40;99.90;;;;;;6182696;23;20040;-93
2021/04/24 00:25:12;;;;;;;5.50;2.45;;;6.30;99.90;;;;;;6156882;23;20021;-88
2021/04/24 00:27:38;;;;;;;6.20;2.17;;;6.30;99.90;;;;;;6182260;23;20013;-93
2021/04/24 00:30:07;;;;;;;13.65;2.30;;;6.30;99.90;;;;;;6181503;23;20075;-91
2021/04/24 00:32:33;;;;;;;7.57;2.55;;;6.20;99.90;;;;;;6182255;23;20099;-95
2021/04/24 00:35:00;;;;;;;10.27;2.85;;;6.20;99.90;;;;;;6182990;23;20013;-94
2021/04/24 00:37:26;;;;;;;6.18;2.53;;;6.20;99.90;;;;;;6182157;23;20050;-91
2021/04/24 00:39:52;;;;;;;8.07;2.75;;;6.20;99.90;;;;;;6182753;23;20028;-93
2021/04/24 00:42:18;;;;;;;12.90;3.10;;;6.10;99.90;;;;;;6156385;23;20021;-90
2021/04/24 00:44:49;;;;;;;7.93;2.72;;;6.20;99.90;;;;;;6182897;23;20013;-92
2021/04/24 00:47:22;;;;;;;11.15;2.88;;;6.10;99.90;;;;;;6192424;23;20024;-89
2021/04/24 00:49:48;;;;;;;7.60;3.35;;;6.10;99.90;;;;;;6142561;23;20017;-93
2021/04/24 00:52:15;;;;;;;7.78;3.20;;;6.10;99.90;;;;;;6131850;23;20021;-89
2021/04/24 00:54:40;;;;;;;9.70;3.00;;;6.10;99.90;;;;;;6156584;23;20395;-94
2021/04/24 00:57:07;;;;;;;4.60;2.83;;;6.10;99.90;;;;;;6182551;23;20024;-91
2021/04/24 00:59:36;;;;;;;17.20;3.40;;;6.10;99.90;;;;;;6156223;23;20091;-94
2021/04/24 01:02:03;;;;;;;12.02;3.00;;;6.00;99.90;;;;;;6156511;23;20017;-92
2021/04/24 01:04:29;;;;;;;3.53;2.88;;;6.00;99.90;;;;;;6182103;23;20027;-94
2021/04/24 01:06:55;;;;;;;12.13;3.38;;;6.00;99.90;;;;;;6157332;23;20021;-94
2021/04/24 01:09:21;;;;;;;9.48;4.50;;;5.90;99.90;;;;;;6131151;23;20021;-94
2021/04/24 01:11:47;;;;;;;11.32;4.15;;;5.90;99.90;;;;;;6132238;23;20017;-95
2021/04/24 01:14:13;;;;;;;9.23;3.60;;;5.90;99.90;;;;;;6156869;23;20383;-93
2021/04/24 01:16:40;;;;;;;10.63;4.13;;;5.70;99.90;;;;;;6182121;23;20206;-94
2021/04/24 01:19:07;;;;;;;15.95;3.97;;;5.70;99.90;;;;;;6157105;23;20112;-95
2021/04/24 01:21:35;;;;;;;15.13;4.57;;;5.80;99.90;;;;;;6182157;23;20071;-95
2021/04/24 01:24:01;;;;;;;14.75;4.78;;;5.60;99.90;;;;;;6156722;23;20019;-94
2021/04/24 01:26:27;;;;;;;13.65;4.80;;;5.60;99.90;;;;;;6182001;23;20139;-95
2021/04/24 01:28:53;;;;;;;9.95;5.15;;;5.60;99.90;;;;;;6132269;23;20014;-95
2021/04/24 01:31:19;;;;;;;10.23;4.72;;;5.60;99.90;;;;;;6156166;23;20024;-91
2021/04/24 01:33:45;;;;;;;11.38;4.50;;;5.70;99.90;;;;;;6155628;23;20017;-91
2021/04/24 01:36:12;;;;;;;11.68;4.38;;;5.60;99.90;;;;;;6183008;23;20021;-93
2021/04/24 01:38:38;;;;;;;8.10;4.57;;;5.50;99.90;;;;;;6155617;23;20559;-94
2021/04/24 01:41:04;;;;;;;12.63;4.80;;;5.50;99.90;;;;;;6152964;23;20100;-94
2021/04/24 01:43:32;;;;;;;12.95;4.32;;;5.40;99.90;;;;;;6181782;23;20017;-95
2021/04/24 01:45:58;;;;;;;15.70;5.40;;;5.50;99.90;;;;;;6180891;23;20013;-94
2021/04/24 01:48:24;;;;;;;15.55;5.95;;;5.40;99.90;;;;;;6180384;23;20013;-94
2021/04/24 01:50:50;;;;;;;12.30;5.55;;;5.40;99.90;;;;;;6182301;23;20024;-94
2021/04/24 01:53:21;;;;;;;12.18;5.47;;;5.40;99.90;;;;;;6182285;23;20087;-95
2021/04/24 01:55:48;;;;;;;17.35;5.75;;;5.40;99.90;;;;;;6182263;23;20028;-92
2021/04/24 01:58:20;;;;;;;18.67;6.05;;;5.40;99.90;;;;;;6180785;23;20054;-90
2021/04/24 02:00:56;;;;;;;21.25;5.97;;;5.40;99.90;;;;;;6180950;23;20036;-93
2021/04/24 02:03:22;;;;;;;18.77;6.63;;;5.40;99.90;;;;;;6181336;23;20021;-89
2021/04/24 02:05:50;;;;;;;10.00;5.70;;;5.40;99.90;;;;;;6181146;23;20017;-92
2021/04/24 02:08:43;;;;;;;10.07;5.43;;;5.30;99.90;;;;;;6156366;23;20398;-93
2021/04/24 02:11:11;;;;;;;14.35;6.28;;;5.30;99.90;;;;;;6177677;23;20099;-94
2021/04/24 02:13:42;;;;;;;13.77;4.97;;;5.40;99.90;;;;;;6181507;23;20017;-94
2021/04/24 02:16:10;;;;;;;17.23;7.00;;;5.40;99.90;;;;;;6182253;23;20021;-93
2021/04/24 02:18:36;;;;;;;14.45;5.47;;;5.40;99.90;;;;;;6181198;23;20045;-94
2021/04/24 02:21:03;;;;;;;15.60;5.72;;;5.40;99.90;;;;;;6181016;23;20227;-91
2021/04/24 02:23:37;;;;;;;15.73;6.57;;;5.40;99.90;;;;;;6180270;23;20088;-92
2021/04/24 02:26:09;;;;;;;16.92;7.05;;;5.40;99.90;;;;;;6182176;23;20017;-92
2021/04/24 02:28:35;;;;;;;17.30;6.15;;;5.50;99.90;;;;;;6180097;23;20443;-94
2021/04/24 02:31:01;;;;;;;14.05;5.85;;;5.40;99.90;;;;;;6180526;23;20013;-92
2021/04/24 02:33:27;;;;;;;13.73;5.20;;;5.40;99.90;;;;;;6180439;23;20027;-93
2021/04/24 02:35:55;;;;;;;10.68;5.90;;;5.60;99.90;;;;;;6181214;23;20017;-92
2021/04/24 02:38:25;;;;;;;21.90;6.93;;;5.50;99.90;;;;;;6180083;23;20032;-88
2021/04/24 02:40:53;;;;;;;11.15;3.40;;;5.50;99.90;;;;;;6182030;23;20023;-93
2021/04/24 02:43:20;;;;;;;12.02;3.70;;;5.70;99.90;;;;;;6155574;23;20343;-93
2021/04/24 02:45:47;;;;;;;12.93;3.60;;;5.70;99.90;;;;;;6181009;23;20017;-95
2021/04/24 02:48:13;;;;;;;18.70;3.92;;;5.80;99.90;;;;;;6181715;23;20013;-92
2021/04/24 02:50:39;;;;;;;13.18;3.03;;;5.90;99.90;;;;;;6154663;23;20084;-91
2021/04/24 02:53:05;;;;;;;12.77;2.95;;;6.00;99.90;;;;;;6131255;23;20028;-93
2021/04/24 02:55:32;;;;;;;4.68;2.70;;;6.10;99.90;;;;;;6180643;23;20075;-93
2021/04/24 02:57:58;;;;;;;7.00;2.10;;;6.20;99.90;;;;;;6156809;23;20024;-93
2021/04/24 03:00:25;;;;;;;7.38;2.45;;;6.20;99.90;;;;;;6157473;23;20067;-89
2021/04/24 03:03:02;;;;;;;6.03;1.75;;;6.30;99.90;;;;;;6157560;23;20045;-92
2021/04/24 03:05:28;;;;;;;6.30;2.35;;;6.40;99.90;;;;;;6182847;23;20041;-93
2021/04/24 03:07:54;;;;;;;5.30;1.45;;;6.30;99.90;;;;;;6158080;23;20017;-92
2021/04/24 03:10:21;;;;;;;15.10;2.80;;;6.40;99.90;;;;;;6157881;23;20450;-93
2021/04/24 03:12:47;;;;;;;10.85;3.13;;;6.40;99.90;;;;;;6183063;23;20012;-92
2021/04/24 03:15:13;;;;;;;8.50;2.95;;;6.40;99.90;;;;;;6133105;23;20013;-92
2021/04/24 03:17:40;;;;;;;6.28;2.15;;;6.30;99.90;;;;;;6156708;23;20025;-94
2021/04/24 03:20:09;;;;;;;13.50;3.28;;;6.40;99.90;;;;;;6133176;23;20141;-89
2021/04/24 03:22:35;;;;;;;8.32;2.95;;;6.40;99.90;;;;;;6157126;23;20096;-92
2021/04/24 03:25:02;;;;;;;8.40;2.45;;;6.30;99.90;;;;;;6158346;23;20036;-93
2021/04/24 03:27:28;;;;;;;6.53;3.03;;;6.30;99.90;;;;;;6157123;23;20096;-90
2021/04/24 03:29:53;;;;;;;9.73;2.83;;;6.30;99.90;;;;;;6183253;23;20052;-93
2021/04/24 03:32:19;;;;;;;6.28;2.58;;;6.20;99.90;;;;;;6183582;23;20028;-94
2021/04/24 03:34:45;;;;;;;4.57;2.25;;;6.40;99.90;;;;;;6182246;23;20021;-92
2021/04/24 03:37:11;;;;;;;8.05;2.72;;;6.20;99.90;;;;;;6157400;23;20087;-93
2021/04/24 03:39:37;;;;;;;9.35;3.28;;;6.20;99.90;;;;;;6182058;23;20021;-93
2021/04/24 03:42:03;;;;;;;6.63;2.40;;;6.20;99.90;;;;;;6183909;23;20436;-93
2021/04/24 03:44:29;;;;;;;11.77;2.80;;;6.20;99.90;;;;;;6183223;23;20021;-88
2021/04/24 03:46:54;;;;;;;7.30;2.67;;;6.20;99.90;;;;;;6183414;23;20021;-93
2021/04/24 03:49:20;;;;;;;12.07;3.10;;;6.30;99.90;;;;;;6133031;23;20028;-93
2021/04/24 03:51:46;;;;;;;8.45;2.70;;;6.20;99.90;;;;;;6131560;23;20444;-90
2021/04/24 03:54:12;;;;;;;5.25;2.50;;;6.20;99.90;;;;;;6132868;23;20026;-93
2021/04/24 03:56:38;;;;;;;4.45;1.88;;;6.30;99.90;;;;;;6182435;23;20021;-91
2021/04/24 03:59:04;;;;;;;7.43;2.33;;;6.30;99.90;;;;;;6183580;23;20017;-93
2021/04/24 04:01:30;;;;;;;9.95;2.97;;;6.40;99.90;;;;;;6183138;23;20128;-89
2021/04/24 04:03:55;;;;;;;8.88;2.10;;;6.50;99.90;;;;;;6132697;23;20048;-92
2021/04/24 04:06:21;;;;;;;9.85;3.40;;;6.40;99.90;;;;;;6183034;23;20340;-91
2021/04/24 04:08:47;;;;;;;6.53;2.92;;;6.40;99.90;;;;;;6155917;23;20466;-91
2021/04/24 04:11:13;;;;;;;12.23;2.55;;;6.40;99.90;;;;;;6156316;23;20013;-90
2021/04/24 04:13:39;;;;;;;9.85;3.88;;;6.40;99.90;;;;;;6131384;23;20451;-92
2021/04/24 04:16:05;;;;;;;10.50;2.85;;;6.50;99.90;;;;;;6157143;23;20020;-92
2021/04/24 04:18:35;;;;;;;7.43;2.38;;;6.40;99.90;;;;;;6156562;23;20025;-88
2021/04/24 04:21:03;;;;;;;14.50;2.45;;;6.40;99.90;;;;;;6156910;23;20023;-93
2021/04/24 04:23:29;;;;;;;9.55;2.95;;;6.30;99.90;;;;;;6157038;23;20017;-92
2021/04/24 04:25:57;;;;;;;12.10;2.63;;;6.40;99.90;;;;;;6156398;23;20455;-90
2021/04/24 04:28:22;;;;;;;8.00;1.58;;;6.20;99.90;;;;;;6157075;23;20032;-89
2021/04/24 04:30:50;;;;;;;7.50;2.88;;;6.20;99.90;;;;;;6182190;23;20017;-91
2021/04/24 04:33:16;;;;;;;8.52;2.95;;;6.30;99.90;;;;;;6156942;23;20032;-91
2021/04/24 04:35:42;;;;;;;12.52;3.10;;;6.30;99.90;;;;;;6156420;23;20070;-93
2021/04/24 04:38:08;;;;;;;15.50;2.67;;;6.30;99.90;;;;;;6157068;23;20017;-93
2021/04/24 04:40:35;;;;;;;14.05;2.58;;;6.30;99.90;;;;;;6171561;23;20021;-87
2021/04/24 04:43:01;;;;;;;11.32;3.47;;;6.30;99.90;;;;;;6183060;23;20024;-93
2021/04/24 04:45:27;;;;;;;13.60;3.40;;;6.30;99.90;;;;;;6183165;23;20017;-89
2021/04/24 04:47:53;;;;;;;10.38;1.77;;;6.40;99.90;;;;;;6181098;23;20017;-94
2021/04/24 04:50:26;;;;;;;20.00;3.15;;;6.50;99.90;;;;;;6181808;23;20017;-92
2021/04/24 04:52:52;;;;;;;11.98;3.30;;;6.40;99.90;;;;;;6182735;23;20173;-94
2021/04/24 04:55:18;;;;;;;22.77;4.22;;;6.50;99.90;;;;;;6181493;23;20108;-93
2021/04/24 04:57:45;;;;;;;5.03;2.25;;;6.50;99.90;;;;;;6156349;23;20440;-94
2021/04/24 05:00:14;;;;;;;10.85;2.58;;;6.50;99.90;;;;;;6156732;23;20056;-91
2021/04/24 05:02:40;;;;;;;8.02;1.63;;;6.60;99.90;;;;;;6181829;23;20116;-89
2021/04/24 05:05:07;;;;;;;13.52;3.53;;;6.60;99.90;;;;;;6182516;23;20017;-92
2021/04/24 05:07:33;;;;;;;8.93;2.35;;;6.60;99.90;;;;;;6181221;23;20440;-87
2021/04/24 05:09:59;;;;;;;13.10;2.30;;;6.70;99.90;;;;;;6181805;23;20048;-91
2021/04/24 05:12:25;;;;;;;8.23;1.80;;;6.60;99.90;;;;;;6181038;23;20017;-92
2021/04/24 05:14:50;;;;;;;10.10;2.92;;;6.60;99.90;;;;;;6180320;23;20025;-89
2021/04/24 05:17:16;;;;;;;15.80;2.75;;;6.60;99.90;;;;;;6181598;23;20028;-92
2021/04/24 05:19:42;;;;;;;15.23;2.42;;;6.60;99.90;;;;;;6181371;23;20087;-94
2021/04/24 05:22:08;;;;;;;4.47;1.85;;;6.70;99.90;;;;;;6182898;23;20021;-92
2021/04/24 05:24:34;;;;;;;12.57;2.47;;;6.70;99.90;;;;;;6181384;23;20017;-91
2021/04/24 05:27:00;;;;;;;12.45;2.92;;;6.80;99.90;;;;;;6180469;23;20017;-93
2021/04/24 05:29:26;;;;;;;16.25;2.60;;;6.80;99.90;;;;;;6182635;23;20017;-92
2021/04/24 05:31:52;;;;;;;11.25;2.60;;;6.80;99.90;;;;;;6181494;23;20052;-93
2021/04/24 05:34:18;;;;;;;4.53;2.00;;;6.80;99.90;;;;;;6180909;23;20542;-93
2021/04/24 05:36:43;;;;;;;6.85;2.00;;;6.90;99.90;;;;;;6180474;23;20079;-91
2021/04/24 05:39:09;;;;;;;10.90;2.83;;;6.90;99.90;;;;;;6182160;23;20071;-92
2021/04/24 05:41:37;;;;;;;11.13;2.70;;;6.90;99.90;;;;;;6132022;23;20025;-90
2021/04/24 05:44:03;;;;;;;8.93;2.10;;;7.00;99.90;;;;;;6181727;23;20021;-91
2021/04/24 05:46:29;;;;;;;10.98;2.65;;;6.90;99.90;;;;;;6156307;23;20092;-91
2021/04/24 05:48:55;;;;;;;8.15;2.70;;;6.90;99.90;;;;;;6155289;23;20055;-91
2021/04/24 05:51:21;;;;;;;16.05;3.40;;;6.90;99.90;;;;;;6181954;23;20013;-90
2021/04/24 05:53:50;;;;;;;14.27;2.67;;;6.90;99.90;;;;;;6155328;23;20474;-92
2021/04/24 05:56:17;;;;;;;24.92;3.38;;;7.00;99.90;;;;;;6182208;23;20071;-91
2021/04/24 05:58:43;;;;;;;16.77;4.25;;;7.00;99.90;;;;;;6154567;23;20032;-89
2021/04/24 06:01:10;;;;;;;10.00;2.88;;;7.00;99.90;;;;;;6182017;23;20013;-92
2021/04/24 06:03:35;;;;;;;10.57;3.20;;;7.10;99.90;;;;;;6181746;23;20017;-93
2021/04/24 06:06:01;;;;;;;12.18;3.30;;;7.10;99.90;;;;;;6156421;23;20027;-92
2021/04/24 06:08:27;;;;;;;14.50;2.88;;;7.00;99.90;;;;;;6182050;23;20048;-93
2021/04/24 06:10:53;;;;;;;9.10;1.85;;;7.10;99.90;;;;;;6180954;23;20017;-95
2021/04/24 06:13:19;;;;;;;6.68;2.63;;;7.20;99.90;;;;;;6181727;23;20064;-90
2021/04/24 06:15:45;;;;;;;12.25;2.20;;;7.30;99.90;;;;;;6155118;23;20470;-92
2021/04/24 06:18:11;;;;;;;12.45;2.05;;;7.30;99.90;;;;;;6156466;23;20016;-92
2021/04/24 06:20:37;;;;;;;9.23;2.58;;;7.30;99.90;;;;;;6181963;23;20016;-92
2021/04/24 06:23:05;;;;;;;15.55;3.17;;;7.20;99.90;;;;;;6154683;23;20797;-91
2021/04/24 06:25:30;;;;;;;15.63;2.92;;;7.20;99.90;;;;;;6182088;23;20032;-92
2021/04/24 06:27:56;;;;;;;8.98;2.47;;;7.20;99.90;;;;;;6130568;23;20021;-92
2021/04/24 06:30:23;;;;;;;9.15;2.38;;;7.40;99.90;;;;;;6156287;23;20017;-92
2021/04/24 06:32:50;;;;;;;25.63;3.28;;;7.40;99.90;;;;;;6180829;23;20378;-91
2021/04/24 06:35:17;;;;;;;13.88;1.88;;;7.50;99.90;;;;;;6181597;23;20045;-91
2021/04/24 06:37:43;;;;;;;14.20;2.60;;;7.60;99.90;;;;;;6155055;23;20028;-87
2021/04/24 06:40:11;;;;;;;15.38;2.03;;;7.60;99.90;;;;;;6184199;23;20021;-89
2021/04/24 06:42:38;;;;;;;12.98;2.80;;;7.50;99.90;;;;;;6181166;23;20017;-91
2021/04/24 06:45:06;;;;;;;12.23;2.95;;;7.60;99.90;;;;;;6180839;23;20013;-92
2021/04/24 06:47:32;;;;;;;11.27;2.65;;;7.60;99.90;;;;;;6181464;23;20088;-90
2021/04/24 06:49:58;;;;;;;12.70;2.97;;;7.60;99.90;;;;;;6154716;23;20017;-91
2021/04/24 06:52:24;;;;;;;13.77;3.10;;;7.60;99.90;;;;;;6155533;23;20020;-90
2021/04/24 06:54:50;;;;;;;13.25;2.88;;;7.80;99.90;;;;;;6154391;23;20025;-91
2021/04/24 06:57:16;;;;;;;10.73;2.70;;;7.80;99.90;;;;;;6181913;23;20021;-91
2021/04/24 06:59:43;;;;;;;12.48;3.22;;;7.90;99.90;;;;;;6155058;23;20032;-91
2021/04/24 07:02:11;;;;;;;9.95;2.30;;;7.90;99.90;;;;;;6154422;23;20491;-93
2021/04/24 07:04:37;;;;;;;7.93;2.40;;;7.90;99.90;;;;;;6181998;23;20020;-91
2021/04/24 07:07:03;;;;;;;11.68;2.22;;;7.90;99.90;;;;;;6180235;23;20017;-88
2021/04/24 07:09:29;;;;;;;13.00;3.65;;;7.80;99.90;;;;;;6130328;23;20027;-91
2021/04/24 07:11:55;;;;;;;16.00;3.58;;;7.80;99.90;;;;;;6153954;23;20017;-91
2021/04/24 07:14:20;;;;;;;15.52;3.03;;;7.90;99.90;;;;;;6155595;23;20372;-90
2021/04/24 07:16:46;;;;;;;19.45;4.63;;;7.90;99.90;;;;;;6180882;23;20017;-87
2021/04/24 07:19:13;;;;;;;8.45;2.95;;;8.00;99.90;;;;;;6130107;23;20443;-90
2021/04/24 07:21:39;;;;;;;12.88;2.13;;;8.00;99.90;;;;;;6180840;23;20444;-89
2021/04/24 07:24:05;;;;;;;19.52;3.05;;;8.00;99.90;;;;;;6153954;23;20019;-89
2021/04/24 07:26:32;;;;;;;17.30;3.85;;;8.00;99.90;;;;;;6155025;23;20017;-89
2021/04/24 07:28:57;;;;;;;16.67;2.80;;;8.00;99.90;;;;;;6153838;23;20021;-87
2021/04/24 07:31:23;;;;;;;10.02;3.28;;;7.90;99.90;;;;;;6180398;23;20458;-86
2021/04/24 07:33:49;;;;;;;25.23;4.28;;;8.00;99.90;;;;;;6153829;23;20036;-86
2021/04/24 07:36:15;;;;;;;18.90;2.47;;;8.00;99.90;;;;;;6153693;23;20039;-85
2021/04/24 07:38:41;;;;;;;25.50;4.32;;;8.00;99.90;;;;;;6154435;23;20019;-87
2021/04/24 07:41:06;;;;;;;23.23;3.13;;;8.00;99.90;;;;;;6122054;23;20076;-87
2021/04/24 07:43:33;;;;;;;9.63;1.77;;;8.10;99.90;;;;;;6154252;23;20202;-87
2021/04/24 07:45:59;;;;;;;26.40;4.45;;;8.10;99.90;;;;;;6179485;23;20031;-86
2021/04/24 07:48:25;;;;;;;17.08;2.80;;;8.00;99.90;;;;;;6156201;23;20047;-87
2021/04/24 07:50:51;;;;;;;26.20;2.88;;;8.10;99.90;;;;;;6180757;23;20371;-86
2021/04/24 07:53:17;;;;;;;27.50;3.97;;;8.10;99.90;;;;;;6155955;23;20017;-86
2021/04/24 07:55:43;;;;;;;25.27;3.78;;;8.10;99.90;;;;;;6182390;23;20473;-86
2021/04/24 07:58:10;;;;;;;15.13;3.17;;;8.10;99.90;;;;;;6155148;23;20024;-87
2021/04/24 08:00:36;;;;;;;19.88;3.92;;;8.10;99.90;;;;;;6182483;23;20040;-87
2021/04/24 08:03:03;;;;;;;15.63;3.17;;;8.20;99.90;;;;;;6155292;23;20227;-87
2021/04/24 08:05:29;;;;;;;14.32;2.90;;;8.20;99.90;;;;;;6181883;23;20017;-86
2021/04/24 08:07:54;;;;;;;20.75;3.70;;;8.20;99.90;;;;;;6154982;23;20021;-86
2021/04/24 08:10:20;;;;;;;24.15;3.67;;;8.30;99.90;;;;;;6182261;23;20083;-86
2021/04/24 08:12:46;;;;;;;11.68;2.72;;;8.30;99.90;;;;;;6182381;23;20101;-87
2021/04/24 08:15:14;;;;;;;18.25;2.78;;;8.30;99.90;;;;;;6181332;23;20021;-86
2021/04/24 08:17:40;;;;;;;18.67;3.80;;;8.30;99.90;;;;;;6180531;23;20079;-88
2021/04/24 08:20:07;;;;;;;21.80;3.72;;;8.30;99.90;;;;;;6154205;23;20040;-87
2021/04/24 08:22:33;;;;;;;22.70;3.25;;;8.30;99.90;;;;;;6179695;23;20020;-87
2021/04/24 08:24:59;;;;;;;19.95;4.10;;;8.40;99.90;;;;;;6179361;23;20339;-86
2021/04/24 08:27:25;;;;;;;17.92;3.00;;;8.50;99.90;;;;;;6182036;23;20021;-87
2021/04/24 08:29:51;;;;;;;19.75;4.03;;;8.50;99.90;;;;;;6155115;23;20024;-86
2021/04/24 08:32:16;;;;;;;16.13;3.10;;;8.40;99.90;;;;;;6181693;23;20017;-87
2021/04/24 08:34:42;;;;;;;18.80;3.65;;;8.40;99.90;;;;;;6155621;23;20100;-87
2021/04/24 08:37:08;;;;;;;26.20;3.60;;;8.40;99.90;;;;;;6154809;23;20021;-87
2021/04/24 08:39:35;;;;;;;15.73;3.15;;;8.50;99.90;;;;;;6158544;23;20024;-87
2021/04/24 08:42:01;;;;;;;15.88;2.45;;;8.50;99.90;;;;;;6180868;23;20017;-87
2021/04/24 08:44:28;;;;;;;21.50;4.05;;;8.50;99.90;;;;;;6155934;23;20439;-87
2021/04/24 08:46:54;;;;;;;16.17;3.42;;;8.50;99.90;;;;;;6181125;23;20023;-87
2021/04/24 08:49:21;;;;;;;17.02;4.60;;;8.50;99.90;;;;;;6154817;23;20048;-86
2021/04/24 08:51:47;;;;;;;17.15;3.83;;;8.60;99.90;;;;;;6181152;23;20063;-87
2021/04/24 08:54:13;;;;;;;30.90;4.60;;;8.60;99.90;;;;;;6153542;23;20021;-87
2021/04/24 08:56:41;;;;;;;29.17;4.07;;;8.70;99.90;;;;;;6155645;23;20021;-88
2021/04/24 08:59:06;;;;;;;8.45;2.17;;;8.70;99.90;;;;;;6152913;23;20178;-87
2021/04/24 09:01:33;;;;;;;17.45;2.55;;;8.60;99.90;;;;;;6153664;23;20059;-86
2021/04/24 09:03:59;;;;;;;21.48;4.55;;;8.60;99.90;;;;;;6180638;23;20032;-89
2021/04/24 09:06:25;;;;;;;15.80;3.38;;;8.70;99.90;;;;;;6155485;23;20025;-92
2021/04/24 09:08:52;;;;;;;14.40;2.95;;;8.70;99.90;;;;;;6156028;23;20021;-87
2021/04/24 09:11:18;;;;;;;14.10;3.28;;;8.70;99.90;;;;;;6154088;23;20021;-88
2021/04/24 09:14:04;;;;;;;16.25;2.70;;;8.60;99.90;;;;;;6155456;23;20017;-87
2021/04/24 09:16:31;;;;;;;16.85;4.07;;;8.60;99.90;;;;;;6191471;23;20021;-89
2021/04/24 09:18:57;;;;;;;18.10;3.08;;;8.70;99.90;;;;;;6154532;23;20443;-85
2021/04/24 09:21:26;;;;;;;23.85;3.08;;;8.80;99.90;;;;;;6181464;23;20060;-86
2021/04/24 09:23:51;;;;;;;11.07;2.22;;;8.80;99.90;;;;;;6155065;23;20046;-86
2021/04/24 09:26:21;;;;;;;14.90;2.70;;;8.80;99.90;;;;;;6154082;23;20009;-86
2021/04/24 09:28:56;;;;;;;14.95;3.30;;;8.90;99.90;;;;;;6155366;23;20017;-86
2021/04/24 09:31:27;;;;;;;12.20;2.38;;;9.00;99.90;;;;;;6164291;23;20017;-86
2021/04/24 09:33:58;;;;;;;17.73;2.97;;;9.00;99.90;;;;;;6155086;23;20017;-86
2021/04/24 09:36:34;;;;;;;17.80;3.65;;;9.10;99.90;;;;;;6180566;23;20055;-86
2021/04/24 09:39:03;;;;;;;19.90;2.45;;;9.00;99.90;;;;;;6190448;23;20371;-85
2021/04/24 09:41:33;;;;;;;10.13;1.60;;;9.10;99.90;;;;;;6180700;23;20027;-87
2021/04/24 09:44:07;;;;;;;13.75;1.95;;;9.10;99.90;;;;;;6163761;23;20159;-85
2021/04/24 09:46:45;;;;;;;23.17;3.13;;;9.10;99.90;;;;;;6179856;23;20017;-86
2021/04/24 09:49:16;;;;;;;15.27;2.92;;;9.10;99.90;;;;;;6180499;23;20017;-86
2021/04/24 09:51:48;;;;;;;12.20;2.00;;;9.20;99.90;;;;;;6190808;23;20020;-87
2021/04/24 09:54:15;;;;;;;18.67;2.15;;;9.30;99.90;;;;;;6189928;23;20037;-87
2021/04/24 09:56:42;;;;;;;18.20;2.25;;;9.20;99.90;;;;;;6180997;23;20025;-87
2021/04/24 09:59:10;;;;;;;15.05;2.70;;;9.10;99.90;;;;;;6180440;23;20028;-86
2021/04/24 10:01:41;;;;;;;12.07;2.75;;;9.10;99.90;;;;;;6181074;23;20024;-86
2021/04/24 10:04:13;;;;;;;15.57;2.63;;;9.20;99.90;;;;;;6180196;23;20025;-86
2021/04/24 10:06:41;;;;;;;15.32;3.28;;;9.20;99.90;;;;;;6179959;23;20103;-86
2021/04/24 10:09:22;;;;;;;14.00;2.38;;;9.20;99.90;;;;;;6180124;23;20029;-86
2021/04/24 10:12:03;;;;;;;18.33;2.92;;;9.20;99.90;;;;;;6191003;23;20017;-86
2021/04/24 10:14:44;;;;;;;13.30;2.20;;;9.30;99.90;;;;;;6190989;23;20020;-87
2021/04/24 10:17:12;;;;;;;22.02;4.25;;;9.30;99.90;;;;;;6153482;23;20092;-87
2021/04/24 10:19:39;;;;;;;16.83;2.92;;;9.30;99.90;;;;;;6154653;23;20023;-87
2021/04/24 10:22:08;;;;;;;14.00;2.35;;;9.30;99.90;;;;;;6179859;23;20028;-86
2021/04/24 10:24:34;;;;;;;25.83;3.47;;;9.20;99.90;;;;;;6180479;23;20039;-87
2021/04/24 10:27:01;;;;;;;18.25;3.60;;;9.20;99.90;;;;;;6180762;23;20025;-87
2021/04/24 10:29:27;;;;;;;19.58;2.83;;;9.10;99.90;;;;;;6179834;23;20055;-87
2021/04/24 10:31:54;;;;;;;19.80;3.05;;;9.30;99.90;;;;;;6154370;23;20437;-87
2021/04/24 10:34:20;;;;;;;23.20;3.38;;;9.30;99.90;;;;;;6180064;23;20025;-89
2021/04/24 10:36:46;;;;;;;17.95;2.65;;;9.40;99.90;;;;;;6180965;23;20023;-87
2021/04/24 10:39:24;;;;;;;16.50;2.75;;;9.50;99.90;;;;;;6179752;23;20021;-92
2021/04/24 10:41:58;;;;;;;17.05;2.83;;;9.50;99.90;;;;;;6178116;23;20439;-88
2021/04/24 10:44:42;;;;;;;13.05;3.03;;;9.60;99.90;;;;;;6179472;23;20039;-89
2021/04/24 10:47:08;;;;;;;9.00;3.03;;;9.60;99.90;;;;;;6152841;23;20390;-88
2021/04/24 10:49:34;;;;;;;19.05;3.70;;;9.60;99.90;;;;;;6155166;23;20051;-88
2021/04/24 10:52:18;;;;;;;13.88;2.58;;;9.60;99.90;;;;;;6180643;23;20013;-89
2021/04/24 10:55:13;;;;;;;5.88;1.45;;;9.60;99.90;;;;;;6181035;23;20072;-90
2021/04/24 10:57:39;;;;;;;8.65;2.03;;;9.60;99.90;;;;;;6180624;23;20056;-88
2021/04/24 11:00:17;;;;;;;13.70;2.55;;;9.50;99.90;;;;;;6179914;23;20024;-86
2021/04/24 11:02:50;;;;;;;18.83;2.92;;;9.50;99.90;;;;;;6190331;23;20032;-87
2021/04/24 11:05:55;;;;;;;14.25;3.03;;;9.50;99.90;;;;;;6152984;23;20013;-88
2021/04/24 11:08:25;;;;;;;18.50;3.05;;;9.50;99.90;;;;;;6178601;23;20021;-87
2021/04/24 11:10:59;;;;;;;7.25;1.83;;;9.50;99.90;;;;;;6180353;23;20501;-85
2021/04/24 11:13:28;;;;;;;8.80;1.88;;;9.40;99.90;;;;;;6188595;23;20017;-87
2021/04/24 11:15:54;;;;;;;7.75;1.80;;;9.50;99.90;;;;;;6153861;23;20028;-86
2021/04/24 11:18:22;;;;;;;12.30;1.60;;;9.50;99.90;;;;;;6153652;23;20096;-87
2021/04/24 11:21:21;;;;;;;6.15;1.10;;;9.60;99.90;;;;;;6181472;23;20474;-87
2021/04/24 11:23:58;;;;;;;15.82;2.13;;;9.70;95.40;;;;;;6192568;23;20434;-86
2021/04/24 11:26:33;;;;;;;6.13;1.35;;;9.60;99.00;;;;;;6181555;23;20119;-88
2021/04/24 11:29:12;;;;;;;2.53;0.57;;;9.60;99.90;;;;;;6182339;23;20028;-87
2021/04/24 11:31:54;;;;;;;7.03;2.03;;;9.50;99.40;;;;;;6182729;23;20035;-87
2021/04/24 11:34:28;;;;;;;15.20;2.33;;;9.60;99.90;;;;;;6155308;23;20052;-87
2021/04/24 11:37:21;;;;;;;13.55;2.47;;;9.60;99.90;;;;;;6182385;23;20023;-87
2021/04/24 11:40:23;;;;;;;6.43;1.65;;;9.70;99.90;;;;;;6155548;23;20021;-87
2021/04/24 11:42:57;;;;;;;5.82;1.25;;;9.70;99.90;;;;;;6155716;23;20017;-87
2021/04/24 11:45:43;;;;;;;5.47;1.63;;;9.70;97.70;;;;;;6181121;23;20097;-87
2021/04/24 11:48:09;;;;;;;3.97;1.00;;;9.70;97.00;;;;;;6155895;23;20506;-87
2021/04/24 11:50:41;;;;;;;3.80;0.95;;;9.70;97.00;;;;;;6155176;23;20024;-87
2021/04/24 11:53:08;;;;;;;10.32;1.67;;;9.70;98.70;;;;;;6192241;23;20021;-86
2021/04/24 11:55:34;;;;;;;4.50;1.33;;;9.60;96.30;;;;;;6155231;23;20056;-87
2021/04/24 11:58:11;;;;;;;6.25;1.50;;;9.70;95.70;;;;;;6156051;23;20025;-87
2021/04/24 12:00:37;;;;;;;4.97;1.10;;;9.80;96.20;;;;;;6191554;23;20339;-87
2021/04/24 12:03:04;;;;;;;3.67;1.10;;;9.90;96.20;;;;;;6182440;23;20021;-86
2021/04/24 12:05:30;;;;;;;6.03;1.48;;;9.80;93.40;;;;;;6181621;23;20769;-87
2021/04/24 12:07:57;;;;;;;10.88;1.58;;;9.90;95.10;;;;;;6155656;23;20045;-87
2021/04/24 12:10:29;;;;;;;8.00;1.13;;;10.00;92.70;;;;;;6130320;23;20021;-86
2021/04/24 12:13:09;;;;;;;6.95;1.27;;;9.90;94.40;;;;;;6179089;23;20021;-86
2021/04/24 12:15:36;;;;;;;3.30;0.93;;;10.00;95.30;;;;;;6162256;23;20738;-86
2021/04/24 12:18:04;;;;;;;12.07;1.30;;;10.10;91.40;;;;;;6155127;23;20017;-88
2021/04/24 12:20:37;;;;;;;5.88;1.13;;;10.00;93.30;;;;;;6181105;23;20025;-87
2021/04/24 12:23:07;;;;;;;5.45;1.48;;;9.90;94.10;;;;;;6165648;23;20021;-88
2021/04/24 12:25:35;;;;;;;13.75;2.45;;;10.00;97.00;;;;;;6130182;23;20583;-87
2021/04/24 12:28:06;;;;;;;5.72;1.45;;;10.10;94.50;;;;;;6155818;23;20021;-87
2021/04/24 12:30:36;;;;;;;12.43;2.00;;;10.00;94.90;;;;;;6180517;23;20020;-87
2021/04/24 12:33:10;;;;;;;7.93;1.58;;;10.00;96.80;;;;;;6155072;23;20378;-88
2021/04/24 12:35:41;;;;;;;4.55;1.08;;;10.10;98.40;;;;;;6181117;23;20013;-87
2021/04/24 12:38:11;;;;;;;7.25;1.27;;;10.10;97.20;;;;;;6181642;23;20021;-87
2021/04/24 12:40:41;;;;;;;4.93;1.10;;;10.00;95.40;;;;;;6180869;23;20051;-87
2021/04/24 12:43:12;;;;;;;12.02;1.45;;;10.10;96.30;;;;;;6181551;23;20017;-88
2021/04/24 12:45:40;;;;;;;8.35;2.03;;;10.00;96.50;;;;;;6180753;23;20013;-87
2021/04/24 12:48:13;;;;;;;3.55;0.85;;;10.00;98.50;;;;;;6181557;23;20040;-87
2021/04/24 12:50:41;;;;;;;14.05;1.98;;;10.00;96.00;;;;;;6181817;23;20104;-87
2021/04/24 12:53:10;;;;;;;7.90;1.63;;;10.00;96.00;;;;;;6181702;23;20633;-86
2021/04/24 12:55:39;;;;;;;12.13;1.73;;;10.00;97.80;;;;;;6180191;23;20017;-87